createdAt,value
2022-09-01T00:00:30.143Z,16.73
2022-09-01T00:03:04.972Z,16.71
2022-09-01T00:05:34.336Z,16.68
2022-09-01T00:08:02.498Z,16.63
2022-09-01T00:10:32.459Z,17.10
2022-09-01T00:13:00.698Z,16.75
2022-09-01T00:15:28.979Z,16.79
2022-09-01T00:17:57.415Z,16.78
2022-09-01T00:20:25.734Z,16.83
2022-09-01T00:22:53.876Z,16.78
2022-09-01T00:25:23.468Z,16.89
2022-09-01T00:27:53.266Z,17.24
2022-09-01T00:30:22.019Z,17.02
2022-09-01T00:32:50.100Z,16.79
2022-09-01T00:35:20.190Z,17.15
2022-09-01T00:37:48.785Z,16.88
2022-09-01T00:40:18.461Z,17.11
2022-09-01T00:42:49.087Z,16.95
2022-09-01T00:45:19.415Z,17.10
2022-09-01T00:47:50.192Z,16.67
2022-09-01T00:50:19.645Z,16.92
2022-09-01T00:52:50.948Z,16.97
2022-09-01T00:55:20.396Z,17.49
2022-09-01T00:57:49.178Z,16.77
2022-09-01T01:00:21.506Z,17.10
2022-09-01T01:02:56.377Z,16.93
2022-09-01T01:05:28.091Z,16.67
2022-09-01T01:07:57.551Z,16.55
2022-09-01T01:10:26.798Z,16.61
2022-09-01T01:12:55.004Z,16.53
2022-09-01T01:15:24.829Z,16.69
2022-09-01T01:17:53.092Z,16.37
2022-09-01T01:20:40.899Z,16.85
2022-09-01T01:23:16.682Z,17.09
2022-09-01T01:25:49.998Z,17.05
2022-09-01T01:28:21.185Z,16.77
2022-09-01T01:30:52.825Z,16.94
2022-09-01T01:33:23.373Z,16.78
2022-09-01T01:35:56.417Z,16.77
2022-09-01T01:38:25.192Z,16.50
2022-09-01T01:40:56.030Z,16.86
2022-09-01T01:43:24.644Z,16.64
2022-09-01T01:45:56.836Z,16.83
2022-09-01T01:48:25.085Z,16.32
2022-09-01T01:50:55.048Z,16.40
2022-09-01T01:53:23.661Z,16.33
2022-09-01T01:55:52.105Z,16.34
2022-09-01T01:58:24.707Z,16.74
2022-09-01T02:00:54.946Z,16.48
2022-09-01T02:03:25.568Z,16.51
2022-09-01T02:05:55.686Z,16.37
2022-09-01T02:08:26.354Z,16.23
2022-09-01T02:10:56.004Z,16.08
2022-09-01T02:13:31.456Z,16.37
2022-09-01T02:16:02.488Z,16.36
2022-09-01T02:18:34.344Z,16.42
2022-09-01T02:21:03.342Z,16.21
2022-09-01T02:23:32.744Z,16.07
2022-09-01T02:26:16.152Z,16.20
2022-09-01T02:28:54.622Z,16.49
2022-09-01T02:31:24.323Z,16.14
2022-09-01T02:33:54.589Z,16.13
2022-09-01T02:36:25.528Z,16.37
2022-09-01T02:38:55.249Z,16.37
2022-09-01T02:41:30.236Z,16.49
2022-09-01T02:44:02.415Z,16.62
2022-09-01T02:46:31.542Z,16.51
2022-09-01T02:49:00.751Z,16.21
2022-09-01T02:51:29.362Z,16.34
2022-09-01T02:53:58.004Z,16.33
2022-09-01T02:56:27.773Z,16.48
2022-09-01T02:58:56.843Z,16.32
2022-09-01T03:01:30.598Z,16.48
2022-09-01T03:04:02.009Z,16.43
2022-09-01T03:06:34.412Z,16.36
2022-09-01T03:09:04.272Z,16.25
2022-09-01T03:11:35.163Z,16.47
2022-09-01T03:14:05.198Z,16.31
2022-09-01T03:16:34.970Z,16.39
2022-09-01T03:19:04.349Z,16.19
2022-09-01T03:21:33.000Z,16.01
2022-09-01T03:24:03.801Z,16.24
2022-09-01T03:26:32.488Z,16.22
2022-09-01T03:29:00.829Z,16.06
2022-09-01T03:31:31.003Z,16.19
2022-09-01T03:34:03.472Z,16.47
2022-09-01T03:36:33.434Z,15.97
2022-09-01T03:39:02.310Z,16.12
2022-09-01T03:41:31.400Z,16.25
2022-09-01T03:44:00.334Z,16.12
2022-09-01T03:46:35.698Z,16.10
2022-09-01T03:49:08.208Z,16.12
2022-09-01T03:51:39.301Z,15.72
2022-09-01T03:54:08.059Z,15.76
2022-09-01T03:56:36.109Z,15.79
2022-09-01T03:59:04.317Z,15.84
2022-09-01T04:01:41.128Z,15.87
2022-09-01T04:04:13.848Z,16.27
2022-09-01T04:06:42.707Z,16.06
2022-09-01T04:09:11.188Z,16.06
2022-09-01T04:11:45.751Z,16.19
2022-09-01T04:14:14.847Z,15.94
2022-09-01T04:17:00.428Z,15.92
2022-09-01T04:19:30.721Z,16.44
2022-09-01T04:22:01.050Z,16.44
2022-09-01T04:24:31.178Z,16.32
2022-09-01T04:27:02.457Z,16.24
2022-09-01T04:29:32.914Z,16.31
2022-09-01T04:32:04.004Z,16.48
2022-09-01T04:34:37.621Z,16.75
2022-09-01T04:37:09.955Z,16.63
2022-09-01T04:39:39.415Z,16.29
2022-09-01T04:42:09.453Z,16.30
2022-09-01T04:44:38.106Z,16.14
2022-09-01T04:47:17.201Z,16.01
2022-09-01T04:49:48.496Z,16.34
2022-09-01T04:52:16.994Z,15.88
2022-09-01T04:54:45.351Z,15.75
2022-09-01T04:57:13.651Z,15.80
2022-09-01T04:59:43.334Z,16.19
2022-09-01T05:02:11.609Z,16.29
2022-09-01T05:04:46.444Z,16.49
2022-09-01T05:07:16.372Z,16.74
2022-09-01T05:09:46.067Z,16.10
2022-09-01T05:12:16.039Z,16.42
2022-09-01T05:14:48.833Z,16.90
2022-09-01T05:17:17.372Z,16.67
2022-09-01T05:19:48.640Z,16.99
2022-09-01T05:22:22.325Z,16.97
2022-09-01T05:24:54.986Z,16.59
2022-09-01T05:27:24.036Z,16.74
2022-09-01T05:29:53.532Z,17.08
2022-09-01T05:32:22.000Z,17.22
2022-09-01T05:34:53.088Z,17.49
2022-09-01T05:37:23.077Z,17.89
2022-09-01T05:39:52.561Z,17.67
2022-09-01T05:42:21.838Z,17.47
2022-09-01T05:44:52.574Z,17.48
2022-09-01T05:47:22.209Z,17.80
2022-09-01T05:49:50.988Z,18.27
2022-09-01T05:52:25.697Z,18.91
2022-09-01T05:55:00.229Z,20.31
2022-09-01T05:57:34.607Z,20.76
2022-09-01T06:00:11.146Z,21.63
2022-09-01T06:02:40.169Z,21.56
2022-09-01T06:05:09.785Z,21.54
2022-09-01T06:07:39.844Z,21.32
2022-09-01T06:10:09.954Z,22.00
2022-09-01T06:12:38.804Z,22.63
2022-09-01T06:15:16.301Z,24.17
2022-09-01T06:17:46.140Z,25.23
2022-09-01T06:20:18.477Z,26.46
2022-09-01T06:22:47.623Z,27.24
2022-09-01T06:25:18.753Z,28.34
2022-09-01T06:27:48.400Z,28.74
2022-09-01T06:30:24.166Z,29.44
2022-09-01T06:32:52.944Z,29.54
2022-09-01T06:35:25.234Z,29.83
2022-09-01T06:37:53.617Z,29.45
2022-09-01T06:40:25.526Z,28.89
2022-09-01T06:42:53.875Z,30.75
2022-09-01T06:45:24.299Z,30.57
2022-09-01T06:47:57.625Z,30.89
2022-09-01T06:56:10.252Z,34.03
2022-09-01T06:58:40.468Z,33.99
2022-09-01T07:01:12.313Z,34.99
2022-09-01T07:03:40.684Z,34.78
2022-09-01T07:06:58.685Z,36.09
2022-09-01T07:16:30.202Z,36.80
2022-09-01T07:17:26.903Z,34.91
2022-09-01T07:19:56.197Z,33.18
2022-09-01T07:23:03.515Z,32.84
2022-09-01T07:25:13.413Z,31.10
2022-09-01T07:27:45.545Z,30.58
2022-09-01T07:30:14.079Z,29.81
2022-09-01T07:32:47.463Z,30.80
2022-09-01T07:35:18.351Z,32.01
2022-09-01T07:38:48.216Z,32.93
2022-09-01T07:42:30.902Z,32.77
2022-09-01T07:43:32.700Z,33.92
2022-09-01T07:49:29.219Z,33.98
2022-09-01T07:51:45.715Z,33.37
2022-09-01T07:54:14.398Z,33.32
2022-09-01T07:56:42.877Z,32.88
2022-09-01T07:59:15.692Z,33.94
2022-09-01T08:01:44.600Z,34.45
2022-09-01T08:04:13.177Z,35.36
2022-09-01T08:06:41.748Z,36.14
2022-09-01T08:09:11.951Z,37.53
2022-09-01T08:12:02.051Z,38.16
2022-09-01T08:14:34.272Z,36.70
2022-09-01T08:17:34.182Z,37.14
2022-09-01T08:19:53.817Z,38.11
2022-09-01T08:22:25.518Z,38.82
2022-09-01T08:24:54.745Z,39.49
2022-09-01T08:27:24.055Z,39.12
2022-09-01T08:29:54.014Z,39.04
2022-09-01T08:32:22.767Z,39.01
2022-09-01T08:34:51.567Z,37.81
2022-09-01T08:37:20.439Z,37.93
2022-09-01T08:39:49.637Z,38.42
2022-09-01T08:42:25.896Z,40.13
2022-09-01T08:45:05.901Z,40.39
2022-09-01T08:47:49.203Z,40.89
2022-09-01T08:50:23.839Z,41.92
2022-09-01T08:53:09.035Z,39.51
2022-09-01T08:55:41.181Z,36.47
2022-09-01T08:58:11.056Z,35.22
2022-09-01T09:00:49.305Z,37.20
2022-09-01T09:03:40.188Z,37.14
2022-09-01T09:06:16.767Z,37.94
2022-09-01T09:08:54.387Z,37.29
2022-09-01T09:11:52.140Z,38.67
2022-09-01T09:14:30.723Z,40.42
2022-09-01T09:17:00.580Z,40.00
2022-09-01T09:19:32.601Z,40.98
2022-09-01T09:22:03.489Z,42.66
2022-09-01T09:24:47.672Z,44.68
2022-09-01T09:27:19.909Z,45.59
2022-09-01T09:29:51.249Z,44.22
2022-09-01T09:32:35.100Z,44.84
2022-09-01T09:35:23.297Z,43.24
2022-09-01T09:37:51.713Z,40.80
2022-09-01T09:40:22.616Z,40.48
2022-09-01T09:43:05.015Z,41.03
2022-09-01T09:45:36.367Z,43.06
2022-09-01T09:48:14.060Z,44.16
2022-09-01T09:50:44.182Z,44.44
2022-09-01T09:53:17.204Z,46.10
2022-09-01T09:55:56.712Z,44.97
2022-09-01T09:58:27.848Z,42.01
2022-09-01T10:01:06.604Z,39.15
2022-09-01T10:03:40.811Z,39.46
2022-09-01T10:06:12.548Z,41.80
2022-09-01T10:08:45.394Z,44.20
2022-09-01T10:11:33.499Z,46.23
2022-09-01T10:14:05.929Z,47.76
2022-09-01T10:16:39.052Z,46.55
2022-09-01T10:19:13.524Z,44.30
2022-09-01T10:21:46.182Z,40.47
2022-09-01T10:24:22.334Z,37.64
2022-09-01T10:26:57.005Z,35.54
2022-09-01T10:29:27.168Z,34.29
2022-09-01T10:32:14.721Z,33.82
2022-09-01T10:34:45.668Z,32.66
2022-09-01T10:37:16.168Z,34.24
2022-09-01T10:40:13.961Z,36.19
2022-09-01T10:42:45.374Z,35.29
2022-09-01T10:45:23.654Z,38.52
2022-09-01T10:47:52.345Z,41.29
2022-09-01T10:50:35.430Z,44.25
2022-09-01T10:53:08.480Z,42.32
2022-09-01T10:55:43.195Z,39.36
2022-09-01T11:05:19.827Z,43.99
2022-09-01T11:08:00.492Z,42.88
2022-09-01T11:10:51.625Z,39.68
2022-09-01T11:13:36.585Z,37.04
2022-09-01T11:19:25.918Z,38.24
2022-09-01T11:22:07.127Z,37.56
2022-09-01T11:25:02.490Z,34.38
2022-09-01T11:28:05.277Z,31.41
2022-09-01T11:30:52.305Z,30.00
2022-09-01T11:33:32.789Z,29.33
2022-09-01T11:36:03.214Z,29.09
2022-09-01T11:38:33.968Z,29.92
2022-09-01T11:41:03.726Z,29.68
2022-09-01T11:43:32.393Z,29.56
2022-09-01T11:46:09.069Z,30.07
2022-09-01T11:48:40.431Z,29.70
2022-09-01T11:51:08.593Z,28.69
2022-09-01T11:53:44.058Z,28.87
2022-09-01T11:56:17.578Z,29.44
2022-09-01T11:58:46.089Z,29.29
2022-09-01T12:01:17.420Z,29.55
2022-09-01T12:03:47.352Z,29.07
2022-09-01T12:06:21.369Z,29.31
2022-09-01T12:08:55.557Z,28.95
2022-09-01T12:11:30.498Z,28.71
2022-09-01T12:14:01.192Z,28.54
2022-09-01T12:16:31.259Z,28.49
2022-09-01T12:19:00.568Z,28.55
2022-09-01T12:21:31.564Z,28.63
2022-09-01T12:24:13.680Z,28.22
2022-09-01T12:26:43.846Z,27.86
2022-09-01T12:29:13.873Z,27.94
2022-09-01T12:31:43.371Z,27.99
2022-09-01T12:34:26.195Z,28.32
2022-09-01T12:37:05.630Z,28.21
2022-09-01T12:39:38.353Z,28.07
2022-09-01T12:42:25.235Z,28.19
2022-09-01T12:44:56.280Z,27.92
2022-09-01T12:47:50.566Z,28.01
2022-09-01T12:50:38.614Z,27.52
2022-09-01T12:53:16.854Z,27.14
2022-09-01T12:55:57.384Z,27.25
2022-09-01T12:58:29.648Z,27.11
2022-09-01T13:01:03.608Z,26.97
2022-09-01T13:03:34.648Z,26.26
2022-09-01T13:06:04.885Z,26.07
2022-09-01T13:08:36.098Z,26.03
2022-09-01T13:11:09.144Z,26.03
2022-09-01T13:13:41.021Z,25.57
2022-09-01T13:16:13.114Z,25.07
2022-09-01T13:21:35.281Z,25.69
2022-09-01T13:24:05.267Z,25.74
2022-09-01T13:26:33.658Z,25.40
2022-09-01T13:29:03.180Z,25.69
2022-09-01T13:31:36.866Z,24.98
2022-09-01T13:34:22.408Z,24.77
2022-09-01T13:36:52.890Z,24.26
2022-09-01T13:39:22.745Z,24.21
2022-09-01T13:41:51.028Z,24.18
2022-09-01T13:44:20.792Z,24.32
2022-09-01T13:50:06.681Z,23.81
2022-09-01T13:52:25.995Z,23.74
2022-09-01T13:54:54.297Z,23.94
2022-09-01T13:57:22.447Z,23.70
2022-09-01T13:59:52.043Z,24.23
2022-09-01T14:02:20.657Z,23.77
2022-09-01T14:04:48.874Z,23.99
2022-09-01T14:07:18.959Z,23.97
2022-09-01T14:09:47.613Z,23.90
2022-09-01T14:12:15.994Z,23.59
2022-09-01T14:17:33.788Z,23.63
2022-09-01T14:20:02.067Z,23.32
2022-09-01T14:22:32.328Z,23.40
2022-09-01T14:25:02.919Z,23.54
2022-09-01T14:27:31.049Z,23.20
2022-09-01T14:29:59.145Z,23.22
2022-09-01T14:32:28.277Z,23.35
2022-09-01T14:34:59.360Z,23.56
2022-09-01T14:37:27.611Z,24.29
2022-09-01T14:39:58.468Z,23.97
2022-09-01T14:42:29.129Z,23.95
2022-09-01T14:44:57.589Z,23.96
2022-09-01T14:47:26.069Z,23.88
2022-09-01T14:49:54.909Z,23.77
2022-09-01T14:52:24.985Z,23.69
2022-09-01T14:54:53.701Z,23.22
2022-09-01T14:57:36.937Z,22.92
2022-09-01T15:00:10.246Z,23.33
2022-09-01T15:02:39.012Z,23.33
2022-09-01T15:05:08.652Z,23.08
2022-09-01T15:07:39.058Z,23.12
2022-09-01T15:10:09.071Z,23.07
2022-09-01T15:12:40.061Z,22.47
2022-09-01T15:15:09.786Z,22.43
2022-09-01T15:17:37.930Z,22.19
2022-09-01T15:20:33.234Z,22.31
2022-09-01T15:23:02.934Z,22.25
2022-09-01T15:25:31.414Z,22.20
2022-09-01T15:28:00.048Z,22.29
2022-09-01T15:30:28.682Z,22.22
2022-09-01T15:32:57.177Z,22.24
2022-09-01T15:35:25.744Z,22.12
2022-09-01T15:37:53.985Z,22.09
2022-09-01T15:40:24.765Z,22.24
2022-09-01T15:42:52.979Z,21.97
2022-09-01T15:45:23.063Z,22.48
2022-09-01T15:47:51.584Z,22.46
2022-09-01T15:50:22.278Z,22.92
2022-09-01T15:52:53.718Z,22.98
2022-09-01T15:55:25.880Z,22.93
2022-09-01T15:57:55.066Z,22.54
2022-09-01T16:00:25.466Z,22.68
2022-09-01T16:02:56.646Z,22.47
2022-09-01T16:05:26.195Z,23.47
2022-09-01T16:10:32.454Z,22.95
2022-09-01T16:13:03.383Z,22.76
2022-09-01T16:15:32.604Z,22.80
2022-09-01T16:18:20.063Z,23.33
2022-09-01T16:20:55.144Z,23.03
2022-09-01T16:23:24.441Z,22.83
2022-09-01T16:25:54.801Z,22.65
2022-09-01T16:28:26.927Z,22.25
2022-09-01T16:30:59.505Z,22.18
2022-09-01T16:33:27.621Z,21.74
2022-09-01T16:36:17.334Z,22.21
2022-09-01T16:38:49.255Z,21.96
2022-09-01T16:41:28.316Z,21.93
2022-09-01T16:44:03.658Z,21.63
2022-09-01T16:46:35.694Z,21.59
2022-09-01T16:49:14.659Z,21.65
2022-09-01T16:51:50.305Z,21.49
2022-09-01T16:54:25.002Z,21.29
2022-09-01T16:57:00.525Z,21.48
2022-09-01T16:59:35.337Z,21.46
2022-09-01T17:02:10.740Z,21.42
2022-09-01T17:04:43.520Z,21.36
2022-09-01T17:07:16.882Z,21.23
2022-09-01T17:09:47.101Z,21.04
2022-09-01T17:12:30.580Z,21.47
2022-09-01T17:15:00.474Z,21.12
2022-09-01T17:17:35.694Z,21.27
2022-09-01T17:20:07.022Z,21.12
2022-09-01T17:22:35.520Z,20.80
2022-09-01T17:25:07.906Z,20.88
2022-09-01T17:27:41.231Z,20.80
2022-09-01T17:30:10.350Z,20.52
2022-09-01T17:33:08.838Z,20.86
2022-09-01T17:35:58.744Z,20.55
2022-09-01T17:38:32.467Z,20.25
2022-09-01T17:41:08.057Z,20.13
2022-09-01T17:43:48.637Z,20.32
2022-09-01T17:46:22.861Z,20.15
2022-09-01T17:48:54.424Z,19.95
2022-09-01T17:51:26.963Z,19.98
2022-09-01T17:54:01.905Z,19.91
2022-09-01T17:56:42.465Z,20.01
2022-09-01T17:59:17.168Z,19.94
2022-09-01T18:01:53.194Z,19.95
2022-09-01T18:04:49.013Z,20.18
2022-09-01T18:07:28.473Z,19.99
2022-09-01T18:09:58.050Z,19.75
2022-09-01T18:12:28.745Z,19.80
2022-09-01T18:15:05.089Z,19.96
2022-09-01T18:17:35.663Z,19.74
2022-09-01T18:20:10.240Z,19.92
2022-09-01T18:22:43.136Z,20.23
2022-09-01T18:25:17.510Z,20.42
2022-09-01T18:27:47.659Z,20.04
2022-09-01T18:30:36.326Z,20.54
2022-09-01T18:33:14.515Z,20.51
2022-09-01T18:35:48.378Z,20.46
2022-09-01T18:38:22.887Z,20.35
2022-09-01T18:41:09.554Z,20.60
2022-09-01T18:43:39.572Z,20.15
2022-09-01T18:46:16.290Z,20.54
2022-09-01T18:48:56.429Z,20.63
2022-09-01T18:51:29.396Z,20.31
2022-09-01T18:54:00.739Z,20.22
2022-09-01T18:56:37.822Z,20.38
2022-09-01T18:59:17.564Z,20.34
2022-09-01T19:01:58.107Z,20.21
2022-09-01T19:04:31.815Z,20.25
2022-09-01T19:07:05.899Z,20.34
2022-09-01T19:09:36.346Z,20.28
2022-09-01T19:12:14.210Z,20.40
2022-09-01T19:14:47.549Z,20.42
2022-09-01T19:17:31.593Z,20.52
2022-09-01T19:20:01.818Z,20.11
2022-09-01T19:22:36.906Z,20.20
2022-09-01T19:25:25.987Z,20.10
2022-09-01T19:27:58.487Z,20.05
2022-09-01T19:30:27.034Z,19.64
2022-09-01T19:32:56.897Z,19.74
2022-09-01T19:35:25.288Z,19.36
2022-09-01T19:37:53.716Z,19.20
2022-09-01T19:40:25.421Z,19.53
2022-09-01T19:42:57.251Z,19.33
2022-09-01T19:45:29.356Z,19.27
2022-09-01T19:48:08.052Z,19.42
2022-09-01T19:50:38.804Z,19.05
2022-09-01T19:53:11.192Z,19.23
2022-09-01T19:55:43.532Z,18.91
2022-09-01T19:58:14.506Z,19.13
2022-09-01T20:00:51.152Z,19.20
2022-09-01T20:03:25.358Z,19.10
2022-09-01T20:05:57.251Z,19.12
2022-09-01T20:08:31.197Z,19.08
2022-09-01T20:11:03.227Z,18.80
2022-09-01T20:13:44.727Z,18.71
2022-09-01T20:16:20.933Z,18.63
2022-09-01T20:18:53.549Z,18.46
2022-09-01T20:21:22.337Z,18.15
2022-09-01T20:23:54.552Z,18.48
2022-09-01T20:26:26.962Z,18.36
2022-09-01T20:29:01.304Z,18.46
2022-09-01T20:31:32.446Z,18.50
2022-09-01T20:34:07.962Z,18.54
2022-09-01T20:36:41.008Z,18.38
2022-09-01T20:39:30.029Z,18.35
2022-09-01T20:42:02.640Z,18.24
2022-09-01T20:44:37.087Z,18.20
2022-09-01T20:47:06.351Z,17.79
2022-09-01T20:49:38.458Z,18.10
2022-09-01T20:52:11.342Z,18.17
2022-09-01T20:54:43.337Z,18.03
2022-09-01T20:57:22.017Z,18.21
2022-09-01T20:59:52.292Z,18.09
2022-09-01T21:02:39.516Z,18.23
2022-09-01T21:05:19.478Z,18.18
2022-09-01T21:07:56.727Z,18.04
2022-09-01T21:10:32.030Z,18.17
2022-09-01T21:13:14.840Z,18.11
2022-09-01T21:15:46.377Z,17.85
2022-09-01T21:18:28.402Z,17.92
2022-09-01T21:21:01.763Z,17.91
2022-09-01T21:23:31.161Z,17.55
2022-09-01T21:25:59.741Z,17.46
2022-09-01T21:28:29.383Z,17.67
2022-09-01T21:31:00.043Z,17.86
2022-09-01T21:33:30.237Z,17.79
2022-09-01T21:36:00.605Z,17.82
2022-09-01T21:38:30.113Z,17.47
2022-09-01T21:41:00.379Z,17.53
2022-09-01T21:43:31.766Z,17.60
2022-09-01T21:46:00.488Z,17.24
2022-09-01T21:48:29.181Z,17.09
2022-09-01T21:50:59.129Z,17.02
2022-09-01T21:53:27.594Z,17.20
2022-09-01T21:55:55.865Z,17.07
2022-09-01T21:58:24.220Z,16.92
2022-09-01T22:04:58.096Z,16.91
2022-09-01T22:07:28.855Z,17.08
2022-09-01T22:09:57.881Z,16.65
2022-09-01T22:12:26.090Z,16.65
2022-09-01T22:14:54.547Z,16.50
2022-09-01T22:17:22.908Z,16.52
2022-09-01T22:19:53.028Z,16.31
2022-09-01T22:22:21.434Z,16.42
2022-09-01T22:24:51.200Z,16.72
2022-09-01T22:27:19.477Z,16.34
2022-09-01T22:29:47.876Z,16.32
2022-09-01T22:32:15.997Z,16.33
2022-09-01T22:34:44.277Z,16.25
2022-09-01T22:37:12.789Z,15.92
2022-09-01T22:39:41.100Z,15.81
2022-09-01T22:42:10.599Z,15.97
2022-09-01T22:44:38.986Z,15.37
2022-09-01T22:47:07.834Z,15.47
2022-09-01T22:49:35.981Z,15.41
2022-09-01T22:52:04.734Z,15.52
2022-09-01T22:54:32.837Z,15.19
2022-09-01T22:57:02.310Z,14.92
2022-09-01T22:59:32.012Z,15.34
2022-09-01T23:02:01.262Z,15.26
2022-09-01T23:04:32.184Z,15.10
2022-09-01T23:07:00.719Z,15.23
2022-09-01T23:09:28.995Z,15.21
2022-09-01T23:11:57.405Z,15.09
2022-09-01T23:14:25.937Z,15.13
2022-09-01T23:16:55.427Z,15.40
2022-09-01T23:19:24.787Z,15.29
2022-09-01T23:21:53.375Z,15.15
2022-09-01T23:24:21.931Z,15.15
2022-09-01T23:26:50.252Z,14.89
2022-09-01T23:29:18.866Z,14.96
2022-09-01T23:31:47.061Z,14.94
2022-09-01T23:34:18.309Z,15.28
2022-09-01T23:36:47.004Z,15.03
2022-09-01T23:39:15.557Z,15.09
2022-09-01T23:41:43.772Z,15.01
2022-09-01T23:44:14.368Z,15.32
2022-09-01T23:46:44.699Z,15.13
2022-09-01T23:49:14.527Z,15.04
2022-09-01T23:51:44.229Z,15.18
2022-09-01T23:54:13.488Z,14.83
2022-09-01T23:56:41.934Z,14.80
2022-09-01T23:59:10.080Z,14.77
